createdAt,value
2023-04-01T00:03:29.284Z,10.36
2023-04-01T00:08:31.473Z,10.30
2023-04-01T00:13:33.481Z,10.22
2023-04-01T00:18:35.339Z,10.27
2023-04-01T00:23:37.087Z,10.21
2023-04-01T00:28:38.680Z,10.28
2023-04-01T00:33:42.141Z,10.18
2023-04-01T00:38:45.057Z,10.18
2023-04-01T00:43:49.620Z,10.14
2023-04-01T00:48:54.758Z,10.14
2023-04-01T00:53:58.736Z,9.98
2023-04-01T00:59:04.380Z,10.04
2023-04-01T01:04:06.737Z,10.05
2023-04-01T01:09:21.892Z,10.03
2023-04-01T01:14:39.689Z,10.02
2023-04-01T01:19:49.294Z,10.18
2023-04-01T01:25:13.744Z,10.11
2023-04-01T01:30:18.210Z,10.04
2023-04-01T01:35:40.052Z,10.00
2023-04-01T01:40:55.554Z,9.92
2023-04-01T01:46:01.125Z,9.97
2023-04-01T01:51:06.339Z,9.96
2023-04-01T01:56:09.058Z,9.98
2023-04-01T02:01:36.941Z,9.91
2023-04-01T02:07:03.458Z,9.96
2023-04-01T02:12:08.886Z,9.98
2023-04-01T02:17:18.249Z,10.05
2023-04-01T02:22:27.226Z,10.09
2023-04-01T02:27:29.313Z,10.10
2023-04-01T02:32:34.587Z,10.15
2023-04-01T02:37:37.343Z,10.10
2023-04-01T02:42:41.189Z,10.11
2023-04-01T02:47:42.852Z,10.11
2023-04-01T02:52:44.638Z,10.11
2023-04-01T02:57:46.577Z,10.07
2023-04-01T03:02:48.304Z,9.98
2023-04-01T03:07:50.252Z,9.99
2023-04-01T03:12:51.977Z,9.89
2023-04-01T03:17:53.653Z,9.82
2023-04-01T03:22:55.481Z,9.86
2023-04-01T03:27:57.534Z,9.93
2023-04-01T03:33:00.572Z,9.83
2023-04-01T03:38:02.283Z,9.91
2023-04-01T03:43:04.813Z,9.92
2023-04-01T03:48:06.978Z,9.92
2023-04-01T03:53:08.864Z,10.02
2023-04-01T03:58:12.078Z,9.98
2023-04-01T04:03:14.605Z,9.98
2023-04-01T04:08:17.455Z,9.95
2023-04-01T04:13:19.953Z,10.03
2023-04-01T04:18:26.642Z,9.99
2023-04-01T04:23:30.754Z,10.06
2023-04-01T04:28:33.080Z,10.06
2023-04-01T04:33:35.860Z,10.15
2023-04-01T04:38:38.254Z,10.10
2023-04-01T04:43:41.254Z,10.10
2023-04-01T04:48:44.827Z,10.05
2023-04-01T04:53:49.534Z,10.00
2023-04-01T04:58:53.698Z,10.07
2023-04-01T05:04:00.507Z,10.05
2023-04-01T05:09:02.229Z,10.07
2023-04-01T05:14:04.001Z,10.06
2023-04-01T05:19:07.404Z,10.07
2023-04-01T05:24:10.815Z,10.09
2023-04-01T05:29:13.351Z,10.12
2023-04-01T05:34:16.312Z,10.15
2023-04-01T05:39:17.937Z,10.05
2023-04-01T05:44:19.699Z,10.03
2023-04-01T05:49:24.805Z,10.12
2023-04-01T05:54:27.664Z,10.23
2023-04-01T05:59:29.402Z,10.28
2023-04-01T06:04:39.716Z,10.39
2023-04-01T06:09:42.842Z,10.54
2023-04-01T06:15:10.480Z,10.67
2023-04-01T06:20:24.386Z,10.63
2023-04-01T06:25:26.098Z,10.71
2023-04-01T06:30:42.160Z,10.98
2023-04-01T06:36:07.513Z,10.89
2023-04-01T06:41:28.814Z,11.21
2023-04-01T06:46:49.103Z,11.21
2023-04-01T06:52:27.409Z,11.37
2023-04-01T06:57:50.888Z,11.60
2023-04-01T07:03:07.048Z,11.57
2023-04-01T07:08:19.005Z,11.29
2023-04-01T07:13:41.986Z,11.32
2023-04-01T07:19:15.936Z,11.77
2023-04-01T07:24:35.016Z,11.50
2023-04-01T07:29:40.705Z,11.57
2023-04-01T07:35:21.310Z,11.48
2023-04-01T07:40:43.421Z,11.50
2023-04-01T07:46:04.940Z,11.66
2023-04-01T07:51:25.713Z,11.82
2023-04-01T07:56:46.033Z,13.30
2023-04-01T08:02:22.313Z,14.15
2023-04-01T08:07:47.610Z,15.19
2023-04-01T08:13:07.493Z,14.58
2023-04-01T08:18:56.070Z,16.24
2023-04-01T08:24:01.421Z,13.88
2023-04-01T08:29:22.016Z,13.38
2023-04-01T08:34:32.995Z,13.20
2023-04-01T08:39:40.539Z,13.77
2023-04-01T08:45:09.664Z,13.80
2023-04-01T08:50:23.218Z,13.18
2023-04-01T08:55:54.259Z,12.98
2023-04-01T09:01:34.783Z,13.00
2023-04-01T09:07:01.508Z,12.96
2023-04-01T09:12:28.434Z,13.15
2023-04-01T09:17:50.438Z,13.04
2023-04-01T09:23:23.817Z,13.07
2023-04-01T09:28:43.969Z,12.84
2023-04-01T09:34:14.906Z,12.63
2023-04-01T09:39:43.402Z,13.03
2023-04-01T09:45:00.257Z,13.30
2023-04-01T09:50:22.399Z,14.26
2023-04-01T09:55:36.301Z,12.87
2023-04-01T10:00:41.325Z,12.85
2023-04-01T10:05:55.225Z,13.56
2023-04-01T10:11:22.139Z,13.07
2023-04-01T10:16:31.256Z,12.89
2023-04-01T10:22:07.132Z,12.94
2023-04-01T10:27:38.560Z,12.88
2023-04-01T10:32:54.683Z,12.79
2023-04-01T10:38:30.825Z,12.68
2023-04-01T10:43:38.918Z,12.69
2023-04-01T10:49:02.186Z,13.01
2023-04-01T10:54:44.069Z,13.22
2023-04-01T11:00:40.462Z,13.51
2023-04-01T11:06:32.878Z,14.15
2023-04-01T11:11:40.903Z,13.43
2023-04-01T11:16:49.359Z,14.30
2023-04-01T11:22:00.146Z,13.72
2023-04-01T11:28:10.069Z,13.40
2023-04-01T11:33:52.882Z,14.07
2023-04-01T11:39:21.801Z,13.01
2023-04-01T11:44:48.665Z,13.74
2023-04-01T11:50:12.262Z,15.20
2023-04-01T11:55:44.759Z,17.21
2023-04-01T12:01:07.886Z,19.66
2023-04-01T12:06:27.103Z,17.88
2023-04-01T12:11:56.543Z,15.09
2023-04-01T12:17:08.228Z,14.09
2023-04-01T12:22:50.603Z,13.83
2023-04-01T12:28:24.224Z,13.67
2023-04-01T12:33:50.720Z,14.03
2023-04-01T12:39:22.294Z,13.47
2023-04-01T12:44:52.642Z,13.73
2023-04-01T12:50:17.505Z,14.43
2023-04-01T12:55:41.239Z,14.80
2023-04-01T13:01:20.436Z,15.73
2023-04-01T13:06:47.859Z,15.50
2023-04-01T13:12:17.636Z,14.88
2023-04-01T13:17:39.136Z,14.75
2023-04-01T13:23:05.707Z,14.51
2023-04-01T13:28:18.367Z,14.54
2023-04-01T13:33:34.741Z,14.75
2023-04-01T13:38:59.899Z,14.32
2023-04-01T13:44:18.738Z,15.30
2023-04-01T13:49:38.490Z,15.15
2023-04-01T13:54:52.013Z,14.21
2023-04-01T14:00:21.001Z,13.78
2023-04-01T14:05:45.032Z,14.45
2023-04-01T14:11:24.018Z,14.64
2023-04-01T14:16:35.399Z,14.67
2023-04-01T14:21:47.941Z,14.29
2023-04-01T14:27:13.842Z,14.07
2023-04-01T14:32:40.389Z,13.97
2023-04-01T14:38:08.120Z,13.67
2023-04-01T14:43:21.681Z,13.94
2023-04-01T14:48:35.681Z,13.59
2023-04-01T14:53:46.756Z,13.12
2023-04-01T14:58:58.327Z,13.39
2023-04-01T15:04:20.475Z,13.23
2023-04-01T15:09:39.842Z,13.33
2023-04-01T15:14:44.115Z,13.47
2023-04-01T15:20:00.681Z,13.49
2023-04-01T15:25:53.361Z,13.93
2023-04-01T15:31:17.742Z,13.37
2023-04-01T15:36:59.352Z,12.96
2023-04-01T15:42:40.378Z,12.88
2023-04-01T15:47:59.727Z,12.91
2023-04-01T15:53:22.566Z,12.70
2023-04-01T15:58:26.825Z,12.63
2023-04-01T16:03:49.913Z,12.41
2023-04-01T16:09:03.860Z,12.32
2023-04-01T16:14:14.846Z,12.38
2023-04-01T16:19:34.699Z,12.22
2023-04-01T16:24:40.028Z,12.39
2023-04-01T16:29:50.363Z,12.32
2023-04-01T16:35:41.957Z,11.98
2023-04-01T16:40:47.762Z,12.27
2023-04-01T16:46:26.829Z,12.12
2023-04-01T16:51:48.295Z,12.12
2023-04-01T17:02:24.961Z,12.01
2023-04-01T17:07:49.105Z,11.75
2023-04-01T17:13:28.436Z,11.56
2023-04-01T17:18:38.731Z,11.27
2023-04-01T17:24:31.525Z,11.15
2023-04-01T17:30:11.981Z,10.98
2023-04-01T17:35:20.448Z,10.87
2023-04-01T17:40:58.644Z,10.83
2023-04-01T17:46:28.321Z,11.09
2023-04-01T17:51:55.732Z,11.16
2023-04-01T17:57:22.796Z,10.92
2023-04-01T18:02:30.610Z,10.79
2023-04-01T18:07:39.351Z,10.85
2023-04-01T18:13:18.146Z,10.76
2023-04-01T18:18:40.879Z,10.85
2023-04-01T18:24:06.946Z,10.93
2023-04-01T18:29:14.282Z,10.95
2023-04-01T18:34:39.632Z,10.85
2023-04-01T18:39:47.491Z,11.01
2023-04-01T18:45:11.035Z,11.10
2023-04-01T18:50:16.402Z,11.03
2023-04-01T18:55:30.416Z,10.88
2023-04-01T19:00:46.070Z,10.99
2023-04-01T19:05:51.496Z,10.99
2023-04-01T19:11:02.477Z,10.83
2023-04-01T19:16:35.271Z,10.75
2023-04-01T19:21:38.642Z,10.66
2023-04-01T19:26:43.664Z,10.87
2023-04-01T19:31:51.416Z,10.76
2023-04-01T19:37:04.270Z,10.72
2023-04-01T19:42:08.441Z,10.81
2023-04-01T19:47:31.711Z,10.84
2023-04-01T19:52:42.335Z,10.74
2023-04-01T19:57:48.837Z,10.77
2023-04-01T20:03:12.515Z,10.75
2023-04-01T20:08:23.301Z,10.42
2023-04-01T20:14:10.628Z,10.59
2023-04-01T20:19:12.620Z,10.51
2023-04-01T20:24:14.312Z,10.68
2023-04-01T20:29:28.281Z,10.49
2023-04-01T20:35:01.181Z,10.39
2023-04-01T20:40:21.398Z,10.49
2023-04-01T20:45:38.677Z,10.37
2023-04-01T20:51:00.433Z,10.40
2023-04-01T20:56:13.862Z,10.51
2023-04-01T21:01:39.174Z,10.35
2023-04-01T21:06:45.715Z,10.11
2023-04-01T21:12:27.992Z,10.10
2023-04-01T21:17:57.182Z,10.24
2023-04-01T21:23:17.160Z,10.23
2023-04-01T21:28:40.279Z,10.22
2023-04-01T21:34:05.482Z,9.93
2023-04-01T21:39:16.383Z,9.87
2023-04-01T21:44:55.280Z,9.80
2023-04-01T21:50:09.126Z,9.72
2023-04-01T21:55:48.066Z,9.87
2023-04-01T22:01:00.517Z,10.13
2023-04-01T22:06:24.052Z,9.93
2023-04-01T22:11:40.433Z,9.81
2023-04-01T22:16:55.106Z,9.73
2023-04-01T22:22:17.962Z,9.79
2023-04-01T22:27:19.534Z,9.67
2023-04-01T22:32:42.925Z,9.62
2023-04-01T22:38:10.705Z,9.44
2023-04-01T22:43:17.186Z,9.35
2023-04-01T22:48:39.772Z,9.33
2023-04-01T22:54:09.277Z,9.25
2023-04-01T22:59:32.433Z,9.18
2023-04-01T23:04:39.937Z,9.18
2023-04-01T23:09:41.855Z,9.20
2023-04-01T23:14:56.183Z,9.17
2023-04-01T23:20:09.135Z,9.09
2023-04-01T23:25:29.926Z,9.14
2023-04-01T23:30:40.504Z,9.05
2023-04-01T23:36:13.570Z,8.94
2023-04-01T23:41:30.087Z,8.80
2023-04-01T23:46:35.396Z,8.78
2023-04-01T23:51:40.904Z,8.65
2023-04-01T23:56:46.741Z,8.53
